sensor_id;sensor_type;location;lat;lon;timestamp;temperature;humidity
7254;DHT22;4060;49.186;9.226;2022-12-29T00:00:27;12.10;65.40
7254;DHT22;4060;49.186;9.226;2022-12-29T00:02:57;12.00;64.40
7254;DHT22;4060;49.186;9.226;2022-12-29T00:05:29;12.10;64.60
7254;DHT22;4060;49.186;9.226;2022-12-29T00:07:58;12.10;64.60
7254;DHT22;4060;49.186;9.226;2022-12-29T00:10:28;12.00;64.50
7254;DHT22;4060;49.186;9.226;2022-12-29T00:12:58;12.10;64.60
7254;DHT22;4060;49.186;9.226;2022-12-29T00:15:43;12.00;64.50
7254;DHT22;4060;49.186;9.226;2022-12-29T00:18:13;12.00;64.60
7254;DHT22;4060;49.186;9.226;2022-12-29T00:20:44;12.00;64.60
7254;DHT22;4060;49.186;9.226;2022-12-29T00:23:30;12.10;64.70
7254;DHT22;4060;49.186;9.226;2022-12-29T00:26:17;12.10;64.80
7254;DHT22;4060;49.186;9.226;2022-12-29T00:29:04;12.10;64.90
7254;DHT22;4060;49.186;9.226;2022-12-29T00:32:02;12.10;65.00
7254;DHT22;4060;49.186;9.226;2022-12-29T00:34:48;12.10;65.10
7254;DHT22;4060;49.186;9.226;2022-12-29T00:37:35;12.00;65.00
7254;DHT22;4060;49.186;9.226;2022-12-29T00:40:21;12.10;65.20
7254;DHT22;4060;49.186;9.226;2022-12-29T00:43:07;12.10;65.30
7254;DHT22;4060;49.186;9.226;2022-12-29T00:45:53;12.10;65.20
7254;DHT22;4060;49.186;9.226;2022-12-29T00:48:22;12.10;65.20
7254;DHT22;4060;49.186;9.226;2022-12-29T00:51:05;12.10;65.30
7254;DHT22;4060;49.186;9.226;2022-12-29T00:53:36;12.10;65.30
7254;DHT22;4060;49.186;9.226;2022-12-29T00:56:06;12.10;65.30
7254;DHT22;4060;49.186;9.226;2022-12-29T00:58:35;12.10;65.30
7254;DHT22;4060;49.186;9.226;2022-12-29T01:01:06;12.10;65.30
7254;DHT22;4060;49.186;9.226;2022-12-29T01:03:37;12.10;65.30
7254;DHT22;4060;49.186;9.226;2022-12-29T01:06:07;12.10;65.30
7254;DHT22;4060;49.186;9.226;2022-12-29T01:08:39;12.10;65.40
7254;DHT22;4060;49.186;9.226;2022-12-29T01:11:49;12.10;65.50
7254;DHT22;4060;49.186;9.226;2022-12-29T01:14:17;12.10;65.50
7254;DHT22;4060;49.186;9.226;2022-12-29T01:16:47;12.10;65.50
7254;DHT22;4060;49.186;9.226;2022-12-29T01:19:17;12.10;65.60
7254;DHT22;4060;49.186;9.226;2022-12-29T01:21:47;12.10;65.50
7254;DHT22;4060;49.186;9.226;2022-12-29T01:24:19;12.10;65.50
7254;DHT22;4060;49.186;9.226;2022-12-29T01:26:49;12.10;65.60
7254;DHT22;4060;49.186;9.226;2022-12-29T01:29:19;12.10;65.60
7254;DHT22;4060;49.186;9.226;2022-12-29T01:31:48;12.10;65.50
7254;DHT22;4060;49.186;9.226;2022-12-29T01:34:18;12.10;65.60
7254;DHT22;4060;49.186;9.226;2022-12-29T01:36:48;12.10;65.60
7254;DHT22;4060;49.186;9.226;2022-12-29T01:39:19;12.10;65.80
7254;DHT22;4060;49.186;9.226;2022-12-29T01:41:48;12.10;65.80
7254;DHT22;4060;49.186;9.226;2022-12-29T01:47:31;12.10;66.10
7254;DHT22;4060;49.186;9.226;2022-12-29T01:50:06;12.10;66.20
7254;DHT22;4060;49.186;9.226;2022-12-29T01:52:42;12.10;66.30
7254;DHT22;4060;49.186;9.226;2022-12-29T01:55:17;12.10;66.40
7254;DHT22;4060;49.186;9.226;2022-12-29T01:57:59;12.10;66.50
7254;DHT22;4060;49.186;9.226;2022-12-29T02:00:54;12.10;66.70
7254;DHT22;4060;49.186;9.226;2022-12-29T02:03:26;12.10;66.70
7254;DHT22;4060;49.186;9.226;2022-12-29T02:05:59;12.10;66.80
7254;DHT22;4060;49.186;9.226;2022-12-29T02:08:32;12.10;66.90
7254;DHT22;4060;49.186;9.226;2022-12-29T02:11:03;12.10;66.90
7254;DHT22;4060;49.186;9.226;2022-12-29T02:13:33;12.10;67.00
7254;DHT22;4060;49.186;9.226;2022-12-29T02:16:12;12.10;67.20
7254;DHT22;4060;49.186;9.226;2022-12-29T02:18:55;12.10;67.30
7254;DHT22;4060;49.186;9.226;2022-12-29T02:22:27;12.10;67.40
7254;DHT22;4060;49.186;9.226;2022-12-29T02:25:43;12.10;67.50
7254;DHT22;4060;49.186;9.226;2022-12-29T02:31:39;12.10;67.70
7254;DHT22;4060;49.186;9.226;2022-12-29T02:34:20;12.10;67.70
7254;DHT22;4060;49.186;9.226;2022-12-29T02:36:59;12.00;67.60
7254;DHT22;4060;49.186;9.226;2022-12-29T02:39:37;12.10;67.80
7254;DHT22;4060;49.186;9.226;2022-12-29T02:42:13;12.10;67.90
7254;DHT22;4060;49.186;9.226;2022-12-29T02:44:52;12.10;67.80
7254;DHT22;4060;49.186;9.226;2022-12-29T02:47:35;12.10;67.90
7254;DHT22;4060;49.186;9.226;2022-12-29T02:50:08;12.00;67.80
7254;DHT22;4060;49.186;9.226;2022-12-29T02:52:46;12.10;67.90
7254;DHT22;4060;49.186;9.226;2022-12-29T02:55:17;12.10;68.00
7254;DHT22;4060;49.186;9.226;2022-12-29T02:57:46;12.10;68.00
7254;DHT22;4060;49.186;9.226;2022-12-29T03:00:16;12.10;68.00
7254;DHT22;4060;49.186;9.226;2022-12-29T03:03:14;12.10;68.00
7254;DHT22;4060;49.186;9.226;2022-12-29T03:06:10;12.10;68.10
7254;DHT22;4060;49.186;9.226;2022-12-29T03:08:49;12.10;68.10
7254;DHT22;4060;49.186;9.226;2022-12-29T03:11:30;12.10;68.10
7254;DHT22;4060;49.186;9.226;2022-12-29T03:14:26;12.10;68.10
7254;DHT22;4060;49.186;9.226;2022-12-29T03:17:18;12.10;68.10
7254;DHT22;4060;49.186;9.226;2022-12-29T03:20:03;12.00;67.90
7254;DHT22;4060;49.186;9.226;2022-12-29T03:22:39;12.00;67.90
7254;DHT22;4060;49.186;9.226;2022-12-29T03:25:14;12.00;68.00
7254;DHT22;4060;49.186;9.226;2022-12-29T03:27:48;12.10;68.10
7254;DHT22;4060;49.186;9.226;2022-12-29T03:30:18;12.10;68.10
7254;DHT22;4060;49.186;9.226;2022-12-29T03:32:52;12.10;68.10
7254;DHT22;4060;49.186;9.226;2022-12-29T03:35:26;12.10;68.10
7254;DHT22;4060;49.186;9.226;2022-12-29T03:38:00;12.10;68.10
7254;DHT22;4060;49.186;9.226;2022-12-29T03:40:35;12.10;68.10
7254;DHT22;4060;49.186;9.226;2022-12-29T03:43:06;12.10;68.10
7254;DHT22;4060;49.186;9.226;2022-12-29T03:45:37;12.10;68.20
7254;DHT22;4060;49.186;9.226;2022-12-29T03:48:07;12.10;68.20
7254;DHT22;4060;49.186;9.226;2022-12-29T03:50:39;12.10;68.40
7254;DHT22;4060;49.186;9.226;2022-12-29T03:53:09;12.10;68.30
7254;DHT22;4060;49.186;9.226;2022-12-29T03:55:40;12.10;68.40
7254;DHT22;4060;49.186;9.226;2022-12-29T03:58:10;12.00;68.30
7254;DHT22;4060;49.186;9.226;2022-12-29T04:00:39;12.10;68.40
7254;DHT22;4060;49.186;9.226;2022-12-29T04:03:08;12.10;68.50
7254;DHT22;4060;49.186;9.226;2022-12-29T04:05:40;12.10;68.50
7254;DHT22;4060;49.186;9.226;2022-12-29T04:08:09;12.10;68.60
7254;DHT22;4060;49.186;9.226;2022-12-29T04:10:38;12.00;68.40
7254;DHT22;4060;49.186;9.226;2022-12-29T04:13:08;12.00;68.40
7254;DHT22;4060;49.186;9.226;2022-12-29T04:15:38;12.10;68.60
7254;DHT22;4060;49.186;9.226;2022-12-29T04:18:08;12.00;68.50
7254;DHT22;4060;49.186;9.226;2022-12-29T04:20:39;12.00;68.40
7254;DHT22;4060;49.186;9.226;2022-12-29T04:23:26;12.10;68.60
7254;DHT22;4060;49.186;9.226;2022-12-29T04:25:55;12.00;68.40
7254;DHT22;4060;49.186;9.226;2022-12-29T04:28:24;12.00;68.40
7254;DHT22;4060;49.186;9.226;2022-12-29T04:30:53;12.00;68.40
7254;DHT22;4060;49.186;9.226;2022-12-29T04:33:23;12.00;68.40
7254;DHT22;4060;49.186;9.226;2022-12-29T04:35:55;12.00;68.30
7254;DHT22;4060;49.186;9.226;2022-12-29T04:38:24;12.00;68.20
7254;DHT22;4060;49.186;9.226;2022-12-29T04:40:53;12.00;68.20
7254;DHT22;4060;49.186;9.226;2022-12-29T04:43:23;12.00;68.10
7254;DHT22;4060;49.186;9.226;2022-12-29T04:45:52;12.00;68.10
7254;DHT22;4060;49.186;9.226;2022-12-29T04:48:22;12.10;68.20
7254;DHT22;4060;49.186;9.226;2022-12-29T04:50:51;12.10;68.30
7254;DHT22;4060;49.186;9.226;2022-12-29T04:53:22;12.10;68.20
7254;DHT22;4060;49.186;9.226;2022-12-29T04:55:53;12.10;68.20
7254;DHT22;4060;49.186;9.226;2022-12-29T04:58:22;12.10;68.20
7254;DHT22;4060;49.186;9.226;2022-12-29T05:00:52;12.10;68.20
7254;DHT22;4060;49.186;9.226;2022-12-29T05:03:22;12.10;68.10
7254;DHT22;4060;49.186;9.226;2022-12-29T05:05:54;12.10;68.10
7254;DHT22;4060;49.186;9.226;2022-12-29T05:08:26;12.10;68.20
7254;DHT22;4060;49.186;9.226;2022-12-29T05:10:56;12.10;68.10
7254;DHT22;4060;49.186;9.226;2022-12-29T05:13:25;12.10;68.10
7254;DHT22;4060;49.186;9.226;2022-12-29T05:15:55;12.10;68.10
7254;DHT22;4060;49.186;9.226;2022-12-29T05:18:24;12.10;68.00
7254;DHT22;4060;49.186;9.226;2022-12-29T05:20:54;12.10;68.10
7254;DHT22;4060;49.186;9.226;2022-12-29T05:23:25;12.10;68.00
7254;DHT22;4060;49.186;9.226;2022-12-29T05:25:55;12.10;68.00
7254;DHT22;4060;49.186;9.226;2022-12-29T05:28:24;12.10;68.00
7254;DHT22;4060;49.186;9.226;2022-12-29T05:30:54;12.10;68.00
7254;DHT22;4060;49.186;9.226;2022-12-29T05:33:24;12.10;68.00
7254;DHT22;4060;49.186;9.226;2022-12-29T05:35:53;12.10;68.00
7254;DHT22;4060;49.186;9.226;2022-12-29T05:38:26;12.10;68.10
7254;DHT22;4060;49.186;9.226;2022-12-29T05:40:55;12.10;68.10
7254;DHT22;4060;49.186;9.226;2022-12-29T05:43:25;12.10;68.10
7254;DHT22;4060;49.186;9.226;2022-12-29T05:45:55;12.10;68.10
7254;DHT22;4060;49.186;9.226;2022-12-29T05:48:25;12.10;68.10
7254;DHT22;4060;49.186;9.226;2022-12-29T05:50:54;12.10;68.10
7254;DHT22;4060;49.186;9.226;2022-12-29T05:53:25;12.10;68.10
7254;DHT22;4060;49.186;9.226;2022-12-29T05:55:55;12.10;68.10
7254;DHT22;4060;49.186;9.226;2022-12-29T05:58:26;12.10;68.10
7254;DHT22;4060;49.186;9.226;2022-12-29T06:00:58;12.10;68.10
7254;DHT22;4060;49.186;9.226;2022-12-29T06:03:28;12.10;68.10
7254;DHT22;4060;49.186;9.226;2022-12-29T06:06:00;12.10;68.10
7254;DHT22;4060;49.186;9.226;2022-12-29T06:08:32;12.10;68.20
7254;DHT22;4060;49.186;9.226;2022-12-29T06:11:01;12.10;68.20
7254;DHT22;4060;49.186;9.226;2022-12-29T06:13:31;12.20;68.30
7254;DHT22;4060;49.186;9.226;2022-12-29T06:16:00;12.10;68.10
7254;DHT22;4060;49.186;9.226;2022-12-29T06:18:30;12.20;68.30
7254;DHT22;4060;49.186;9.226;2022-12-29T06:21:00;12.20;68.30
7254;DHT22;4060;49.186;9.226;2022-12-29T06:23:32;12.20;68.30
7254;DHT22;4060;49.186;9.226;2022-12-29T06:26:01;12.20;68.20
7254;DHT22;4060;49.186;9.226;2022-12-29T06:28:30;12.20;68.20
7254;DHT22;4060;49.186;9.226;2022-12-29T06:31:01;12.20;68.30
7254;DHT22;4060;49.186;9.226;2022-12-29T06:33:31;12.20;68.30
7254;DHT22;4060;49.186;9.226;2022-12-29T06:36:00;12.20;68.30
7254;DHT22;4060;49.186;9.226;2022-12-29T06:38:36;12.20;68.30
7254;DHT22;4060;49.186;9.226;2022-12-29T06:41:05;12.20;68.30
7254;DHT22;4060;49.186;9.226;2022-12-29T06:43:35;12.20;68.40
7254;DHT22;4060;49.186;9.226;2022-12-29T06:46:05;12.20;68.40
7254;DHT22;4060;49.186;9.226;2022-12-29T06:48:34;12.20;68.40
7254;DHT22;4060;49.186;9.226;2022-12-29T06:51:04;12.20;68.40
7254;DHT22;4060;49.186;9.226;2022-12-29T06:53:35;12.20;68.40
7254;DHT22;4060;49.186;9.226;2022-12-29T06:56:08;12.20;68.40
7254;DHT22;4060;49.186;9.226;2022-12-29T06:58:37;12.20;68.30
7254;DHT22;4060;49.186;9.226;2022-12-29T07:01:07;12.20;68.40
7254;DHT22;4060;49.186;9.226;2022-12-29T07:03:36;12.20;68.30
7254;DHT22;4060;49.186;9.226;2022-12-29T07:06:06;12.20;68.30
7254;DHT22;4060;49.186;9.226;2022-12-29T07:08:37;12.20;68.30
7254;DHT22;4060;49.186;9.226;2022-12-29T07:11:07;12.20;68.30
7254;DHT22;4060;49.186;9.226;2022-12-29T07:13:37;12.30;68.50
7254;DHT22;4060;49.186;9.226;2022-12-29T07:16:08;12.30;68.40
7254;DHT22;4060;49.186;9.226;2022-12-29T07:18:38;12.30;68.40
7254;DHT22;4060;49.186;9.226;2022-12-29T07:21:07;12.30;68.40
7254;DHT22;4060;49.186;9.226;2022-12-29T07:23:38;12.30;68.40
7254;DHT22;4060;49.186;9.226;2022-12-29T07:26:11;12.30;68.40
7254;DHT22;4060;49.186;9.226;2022-12-29T07:28:41;12.30;68.40
7254;DHT22;4060;49.186;9.226;2022-12-29T07:31:14;12.30;68.30
7254;DHT22;4060;49.186;9.226;2022-12-29T07:33:44;12.30;68.30
7254;DHT22;4060;49.186;9.226;2022-12-29T07:36:15;12.30;68.30
7254;DHT22;4060;49.186;9.226;2022-12-29T07:38:46;12.40;68.40
7254;DHT22;4060;49.186;9.226;2022-12-29T07:41:18;12.40;68.30
7254;DHT22;4060;49.186;9.226;2022-12-29T07:43:47;12.40;68.30
7254;DHT22;4060;49.186;9.226;2022-12-29T07:46:17;12.40;68.20
7254;DHT22;4060;49.186;9.226;2022-12-29T07:48:46;12.40;68.20
7254;DHT22;4060;49.186;9.226;2022-12-29T07:51:15;12.50;68.10
7254;DHT22;4060;49.186;9.226;2022-12-29T07:53:47;12.50;68.00
7254;DHT22;4060;49.186;9.226;2022-12-29T07:56:17;12.50;67.90
7254;DHT22;4060;49.186;9.226;2022-12-29T07:58:46;12.50;67.80
7254;DHT22;4060;49.186;9.226;2022-12-29T08:01:15;12.50;67.80
7254;DHT22;4060;49.186;9.226;2022-12-29T08:03:45;12.60;67.90
7254;DHT22;4060;49.186;9.226;2022-12-29T08:06:16;12.60;67.80
7254;DHT22;4060;49.186;9.226;2022-12-29T08:08:47;12.60;67.70
7254;DHT22;4060;49.186;9.226;2022-12-29T08:11:17;12.60;67.60
7254;DHT22;4060;49.186;9.226;2022-12-29T08:13:47;12.60;67.60
7254;DHT22;4060;49.186;9.226;2022-12-29T08:16:16;12.60;67.50
7254;DHT22;4060;49.186;9.226;2022-12-29T08:18:45;12.60;67.40
7254;DHT22;4060;49.186;9.226;2022-12-29T08:21:18;12.60;67.20
7254;DHT22;4060;49.186;9.226;2022-12-29T08:23:50;12.70;67.30
7254;DHT22;4060;49.186;9.226;2022-12-29T08:26:19;12.70;67.30
7254;DHT22;4060;49.186;9.226;2022-12-29T08:28:48;12.70;67.20
7254;DHT22;4060;49.186;9.226;2022-12-29T08:31:17;12.70;67.20
7254;DHT22;4060;49.186;9.226;2022-12-29T08:33:46;12.70;67.10
7254;DHT22;4060;49.186;9.226;2022-12-29T08:36:17;12.70;67.10
7254;DHT22;4060;49.186;9.226;2022-12-29T08:38:46;12.70;67.20
7254;DHT22;4060;49.186;9.226;2022-12-29T08:41:16;12.70;67.20
7254;DHT22;4060;49.186;9.226;2022-12-29T08:43:46;12.70;67.20
7254;DHT22;4060;49.186;9.226;2022-12-29T08:46:16;12.70;67.20
7254;DHT22;4060;49.186;9.226;2022-12-29T08:48:45;12.70;67.20
7254;DHT22;4060;49.186;9.226;2022-12-29T08:51:15;12.70;67.20
7254;DHT22;4060;49.186;9.226;2022-12-29T08:53:44;12.70;67.10
7254;DHT22;4060;49.186;9.226;2022-12-29T08:56:16;12.70;66.70
7254;DHT22;4060;49.186;9.226;2022-12-29T08:58:45;12.80;66.60
7254;DHT22;4060;49.186;9.226;2022-12-29T09:01:14;12.80;66.30
7254;DHT22;4060;49.186;9.226;2022-12-29T09:03:43;12.90;66.20
7254;DHT22;4060;49.186;9.226;2022-12-29T09:06:12;12.90;66.00
7254;DHT22;4060;49.186;9.226;2022-12-29T09:08:43;12.90;65.90
7254;DHT22;4060;49.186;9.226;2022-12-29T09:11:18;12.90;66.00
7254;DHT22;4060;49.186;9.226;2022-12-29T09:13:47;12.90;65.80
7254;DHT22;4060;49.186;9.226;2022-12-29T09:16:18;12.90;65.90
7254;DHT22;4060;49.186;9.226;2022-12-29T09:18:47;12.90;65.80
7254;DHT22;4060;49.186;9.226;2022-12-29T09:21:17;12.90;66.00
7254;DHT22;4060;49.186;9.226;2022-12-29T09:23:48;12.90;66.00
7254;DHT22;4060;49.186;9.226;2022-12-29T09:26:20;12.90;66.10
7254;DHT22;4060;49.186;9.226;2022-12-29T09:28:49;12.90;66.20
7254;DHT22;4060;49.186;9.226;2022-12-29T09:31:18;12.90;66.20
7254;DHT22;4060;49.186;9.226;2022-12-29T09:33:49;12.90;66.20
7254;DHT22;4060;49.186;9.226;2022-12-29T09:36:18;12.90;66.20
7254;DHT22;4060;49.186;9.226;2022-12-29T09:38:48;12.80;66.20
7254;DHT22;4060;49.186;9.226;2022-12-29T09:41:24;12.90;66.30
7254;DHT22;4060;49.186;9.226;2022-12-29T09:44:04;12.90;66.60
7254;DHT22;4060;49.186;9.226;2022-12-29T09:46:38;12.80;66.30
7254;DHT22;4060;49.186;9.226;2022-12-29T09:49:23;12.80;66.30
7254;DHT22;4060;49.186;9.226;2022-12-29T09:52:10;12.80;66.30
7254;DHT22;4060;49.186;9.226;2022-12-29T09:54:50;12.90;66.50
7254;DHT22;4060;49.186;9.226;2022-12-29T09:57:26;12.80;66.40
7254;DHT22;4060;49.186;9.226;2022-12-29T09:59:59;12.80;66.40
7254;DHT22;4060;49.186;9.226;2022-12-29T10:02:38;12.90;66.50
7254;DHT22;4060;49.186;9.226;2022-12-29T10:05:23;12.80;66.40
7254;DHT22;4060;49.186;9.226;2022-12-29T10:08:15;12.90;66.70
7254;DHT22;4060;49.186;9.226;2022-12-29T10:10:52;12.90;66.50
7254;DHT22;4060;49.186;9.226;2022-12-29T10:13:40;12.90;66.60
7254;DHT22;4060;49.186;9.226;2022-12-29T10:16:17;12.90;66.60
7254;DHT22;4060;49.186;9.226;2022-12-29T10:19:27;12.90;66.50
7254;DHT22;4060;49.186;9.226;2022-12-29T10:22:13;12.90;66.70
7254;DHT22;4060;49.186;9.226;2022-12-29T10:24:48;12.90;66.80
7254;DHT22;4060;49.186;9.226;2022-12-29T10:27:18;12.90;66.90
7254;DHT22;4060;49.186;9.226;2022-12-29T10:29:54;12.90;67.00
7254;DHT22;4060;49.186;9.226;2022-12-29T10:32:30;13.00;67.20
7254;DHT22;4060;49.186;9.226;2022-12-29T10:35:05;13.00;67.20
7254;DHT22;4060;49.186;9.226;2022-12-29T10:37:45;13.00;67.30
7254;DHT22;4060;49.186;9.226;2022-12-29T10:40:24;13.00;67.30
7254;DHT22;4060;49.186;9.226;2022-12-29T10:42:56;13.00;67.20
7254;DHT22;4060;49.186;9.226;2022-12-29T10:45:29;13.00;67.30
7254;DHT22;4060;49.186;9.226;2022-12-29T10:48:03;13.10;67.50
7254;DHT22;4060;49.186;9.226;2022-12-29T10:50:34;13.10;67.50
7254;DHT22;4060;49.186;9.226;2022-12-29T10:53:18;13.10;67.60
7254;DHT22;4060;49.186;9.226;2022-12-29T10:55:50;13.10;67.60
7254;DHT22;4060;49.186;9.226;2022-12-29T10:58:20;13.10;67.70
7254;DHT22;4060;49.186;9.226;2022-12-29T11:00:53;13.10;68.00
7254;DHT22;4060;49.186;9.226;2022-12-29T11:06:28;13.20;68.70
7254;DHT22;4060;49.186;9.226;2022-12-29T11:09:01;13.10;68.70
7254;DHT22;4060;49.186;9.226;2022-12-29T11:11:35;13.10;68.90
7254;DHT22;4060;49.186;9.226;2022-12-29T11:14:12;13.20;69.30
7254;DHT22;4060;49.186;9.226;2022-12-29T11:16:44;13.20;69.50
7254;DHT22;4060;49.186;9.226;2022-12-29T11:19:23;13.10;69.50
7254;DHT22;4060;49.186;9.226;2022-12-29T11:21:53;13.20;69.80
7254;DHT22;4060;49.186;9.226;2022-12-29T11:24:24;13.10;69.80
7254;DHT22;4060;49.186;9.226;2022-12-29T11:26:55;13.20;70.10
7254;DHT22;4060;49.186;9.226;2022-12-29T11:29:27;13.20;70.10
7254;DHT22;4060;49.186;9.226;2022-12-29T11:31:59;13.20;70.20
7254;DHT22;4060;49.186;9.226;2022-12-29T11:34:40;13.20;70.40
7254;DHT22;4060;49.186;9.226;2022-12-29T11:37:13;13.20;70.40
7254;DHT22;4060;49.186;9.226;2022-12-29T11:39:50;13.20;70.50
7254;DHT22;4060;49.186;9.226;2022-12-29T11:42:36;13.20;70.60
7254;DHT22;4060;49.186;9.226;2022-12-29T11:45:16;13.20;70.60
7254;DHT22;4060;49.186;9.226;2022-12-29T11:47:49;13.20;70.60
7254;DHT22;4060;49.186;9.226;2022-12-29T11:50:21;13.20;70.70
7254;DHT22;4060;49.186;9.226;2022-12-29T11:52:59;13.20;70.70
7254;DHT22;4060;49.186;9.226;2022-12-29T11:55:31;13.20;70.80
7254;DHT22;4060;49.186;9.226;2022-12-29T11:58:03;13.20;71.10
7254;DHT22;4060;49.186;9.226;2022-12-29T12:00:36;13.20;70.80
7254;DHT22;4060;49.186;9.226;2022-12-29T12:03:16;13.20;70.80
7254;DHT22;4060;49.186;9.226;2022-12-29T12:05:48;13.20;71.70
7254;DHT22;4060;49.186;9.226;2022-12-29T12:08:28;13.20;70.90
7254;DHT22;4060;49.186;9.226;2022-12-29T12:11:06;13.20;71.00
7254;DHT22;4060;49.186;9.226;2022-12-29T12:13:45;13.30;71.00
7254;DHT22;4060;49.186;9.226;2022-12-29T12:16:19;13.30;71.00
7254;DHT22;4060;49.186;9.226;2022-12-29T12:18:54;13.30;71.40
7254;DHT22;4060;49.186;9.226;2022-12-29T12:21:30;13.30;71.00
7254;DHT22;4060;49.186;9.226;2022-12-29T12:24:22;13.30;70.90
7254;DHT22;4060;49.186;9.226;2022-12-29T12:27:02;13.30;70.80
7254;DHT22;4060;49.186;9.226;2022-12-29T12:29:43;13.30;70.70
7254;DHT22;4060;49.186;9.226;2022-12-29T12:32:19;13.30;70.60
7254;DHT22;4060;49.186;9.226;2022-12-29T12:34:51;13.30;70.60
7254;DHT22;4060;49.186;9.226;2022-12-29T12:37:41;13.40;70.50
7254;DHT22;4060;49.186;9.226;2022-12-29T12:40:53;13.40;70.50
7254;DHT22;4060;49.186;9.226;2022-12-29T12:43:39;13.40;70.40
7254;DHT22;4060;49.186;9.226;2022-12-29T12:46:27;13.40;70.40
7254;DHT22;4060;49.186;9.226;2022-12-29T12:52:10;13.40;70.30
7254;DHT22;4060;49.186;9.226;2022-12-29T12:54:59;13.40;70.20
7254;DHT22;4060;49.186;9.226;2022-12-29T12:57:45;13.40;70.10
7254;DHT22;4060;49.186;9.226;2022-12-29T13:00:21;13.40;70.00
7254;DHT22;4060;49.186;9.226;2022-12-29T13:03:04;13.40;69.80
7254;DHT22;4060;49.186;9.226;2022-12-29T13:06:00;13.40;69.80
7254;DHT22;4060;49.186;9.226;2022-12-29T13:09:03;13.50;69.80
7254;DHT22;4060;49.186;9.226;2022-12-29T13:11:49;13.50;69.70
7254;DHT22;4060;49.186;9.226;2022-12-29T13:14:29;13.50;69.50
7254;DHT22;4060;49.186;9.226;2022-12-29T13:17:09;13.50;69.50
7254;DHT22;4060;49.186;9.226;2022-12-29T13:19:44;13.50;69.40
7254;DHT22;4060;49.186;9.226;2022-12-29T13:22:23;13.50;69.20
7254;DHT22;4060;49.186;9.226;2022-12-29T13:25:18;13.50;69.30
7254;DHT22;4060;49.186;9.226;2022-12-29T13:27:53;13.50;69.10
7254;DHT22;4060;49.186;9.226;2022-12-29T13:30:31;13.50;69.10
7254;DHT22;4060;49.186;9.226;2022-12-29T13:33:17;13.60;69.10
7254;DHT22;4060;49.186;9.226;2022-12-29T13:35:56;13.60;69.10
7254;DHT22;4060;49.186;9.226;2022-12-29T13:38:34;13.60;68.90
7254;DHT22;4060;49.186;9.226;2022-12-29T13:41:08;13.60;68.90
7254;DHT22;4060;49.186;9.226;2022-12-29T13:43:42;13.60;68.80
7254;DHT22;4060;49.186;9.226;2022-12-29T13:46:18;13.60;68.80
7254;DHT22;4060;49.186;9.226;2022-12-29T13:48:52;13.60;68.70
7254;DHT22;4060;49.186;9.226;2022-12-29T13:51:24;13.70;68.80
7254;DHT22;4060;49.186;9.226;2022-12-29T13:54:03;13.70;68.80
7254;DHT22;4060;49.186;9.226;2022-12-29T13:56:40;13.70;68.80
7254;DHT22;4060;49.186;9.226;2022-12-29T13:59:17;13.70;68.70
7254;DHT22;4060;49.186;9.226;2022-12-29T14:01:55;13.70;68.80
7254;DHT22;4060;49.186;9.226;2022-12-29T14:04:28;13.70;68.80
7254;DHT22;4060;49.186;9.226;2022-12-29T14:07:02;13.70;68.80
7254;DHT22;4060;49.186;9.226;2022-12-29T14:09:46;13.70;68.80
7254;DHT22;4060;49.186;9.226;2022-12-29T14:12:37;13.70;68.80
7254;DHT22;4060;49.186;9.226;2022-12-29T14:15:31;13.70;68.90
7254;DHT22;4060;49.186;9.226;2022-12-29T14:18:11;13.70;68.90
7254;DHT22;4060;49.186;9.226;2022-12-29T14:20:53;13.70;69.00
7254;DHT22;4060;49.186;9.226;2022-12-29T14:23:37;13.70;69.00
7254;DHT22;4060;49.186;9.226;2022-12-29T14:26:16;13.70;69.00
7254;DHT22;4060;49.186;9.226;2022-12-29T14:28:48;13.70;69.00
7254;DHT22;4060;49.186;9.226;2022-12-29T14:31:38;13.70;69.10
7254;DHT22;4060;49.186;9.226;2022-12-29T14:34:30;13.70;69.20
7254;DHT22;4060;49.186;9.226;2022-12-29T14:37:01;13.70;69.20
7254;DHT22;4060;49.186;9.226;2022-12-29T14:39:38;13.70;69.30
7254;DHT22;4060;49.186;9.226;2022-12-29T14:42:14;13.70;69.40
7254;DHT22;4060;49.186;9.226;2022-12-29T14:44:53;13.70;69.50
7254;DHT22;4060;49.186;9.226;2022-12-29T14:47:31;13.70;69.60
7254;DHT22;4060;49.186;9.226;2022-12-29T14:50:16;13.70;69.80
7254;DHT22;4060;49.186;9.226;2022-12-29T14:52:48;13.70;69.90
7254;DHT22;4060;49.186;9.226;2022-12-29T14:55:38;13.70;70.00
7254;DHT22;4060;49.186;9.226;2022-12-29T14:58:15;13.70;70.20
7254;DHT22;4060;49.186;9.226;2022-12-29T15:00:50;13.70;70.30
7254;DHT22;4060;49.186;9.226;2022-12-29T15:03:21;13.70;70.50
7254;DHT22;4060;49.186;9.226;2022-12-29T15:05:54;13.70;70.60
7254;DHT22;4060;49.186;9.226;2022-12-29T15:08:25;13.60;70.50
7254;DHT22;4060;49.186;9.226;2022-12-29T15:10:58;13.60;70.60
7254;DHT22;4060;49.186;9.226;2022-12-29T15:13:38;13.60;70.70
7254;DHT22;4060;49.186;9.226;2022-12-29T15:16:24;13.60;71.00
7254;DHT22;4060;49.186;9.226;2022-12-29T15:18:56;13.60;71.10
7254;DHT22;4060;49.186;9.226;2022-12-29T15:21:27;13.60;71.30
7254;DHT22;4060;49.186;9.226;2022-12-29T15:23:58;13.60;71.30
7254;DHT22;4060;49.186;9.226;2022-12-29T15:26:39;13.60;71.50
7254;DHT22;4060;49.186;9.226;2022-12-29T15:29:30;13.60;71.70
7254;DHT22;4060;49.186;9.226;2022-12-29T15:32:18;13.60;71.90
7254;DHT22;4060;49.186;9.226;2022-12-29T15:34:49;13.60;72.00
7254;DHT22;4060;49.186;9.226;2022-12-29T15:37:21;13.50;72.00
7254;DHT22;4060;49.186;9.226;2022-12-29T15:39:51;13.50;72.10
7254;DHT22;4060;49.186;9.226;2022-12-29T15:45:16;13.50;72.40
7254;DHT22;4060;49.186;9.226;2022-12-29T15:47:50;13.50;72.40
7254;DHT22;4060;49.186;9.226;2022-12-29T15:50:27;13.50;72.50
7254;DHT22;4060;49.186;9.226;2022-12-29T15:52:58;13.50;72.60
7254;DHT22;4060;49.186;9.226;2022-12-29T15:55:30;13.50;72.60
7254;DHT22;4060;49.186;9.226;2022-12-29T15:58:02;13.50;72.60
7254;DHT22;4060;49.186;9.226;2022-12-29T16:00:34;13.50;72.70
7254;DHT22;4060;49.186;9.226;2022-12-29T16:03:12;13.40;72.60
7254;DHT22;4060;49.186;9.226;2022-12-29T16:05:51;13.40;72.70
7254;DHT22;4060;49.186;9.226;2022-12-29T16:08:33;13.50;72.80
7254;DHT22;4060;49.186;9.226;2022-12-29T16:11:17;13.40;72.60
7254;DHT22;4060;49.186;9.226;2022-12-29T16:13:48;13.40;72.60
7254;DHT22;4060;49.186;9.226;2022-12-29T16:16:20;13.40;72.50
7254;DHT22;4060;49.186;9.226;2022-12-29T16:18:54;13.40;72.50
7254;DHT22;4060;49.186;9.226;2022-12-29T16:21:26;13.40;72.50
7254;DHT22;4060;49.186;9.226;2022-12-29T16:23:59;13.40;72.50
7254;DHT22;4060;49.186;9.226;2022-12-29T16:26:29;13.40;72.60
7254;DHT22;4060;49.186;9.226;2022-12-29T16:29:00;13.30;72.40
7254;DHT22;4060;49.186;9.226;2022-12-29T16:31:35;13.40;72.50
7254;DHT22;4060;49.186;9.226;2022-12-29T16:34:24;13.30;72.40
7254;DHT22;4060;49.186;9.226;2022-12-29T16:36:55;13.30;72.50
7254;DHT22;4060;49.186;9.226;2022-12-29T16:39:28;13.30;72.40
7254;DHT22;4060;49.186;9.226;2022-12-29T16:41:59;13.30;72.50
7254;DHT22;4060;49.186;9.226;2022-12-29T16:44:29;13.30;72.50
7254;DHT22;4060;49.186;9.226;2022-12-29T16:47:18;13.30;72.60
7254;DHT22;4060;49.186;9.226;2022-12-29T16:49:52;13.30;72.60
7254;DHT22;4060;49.186;9.226;2022-12-29T16:52:25;13.30;72.60
7254;DHT22;4060;49.186;9.226;2022-12-29T16:54:59;13.30;72.60
7254;DHT22;4060;49.186;9.226;2022-12-29T16:57:31;13.30;72.70
7254;DHT22;4060;49.186;9.226;2022-12-29T17:00:05;13.20;72.50
7254;DHT22;4060;49.186;9.226;2022-12-29T17:02:35;13.20;72.50
7254;DHT22;4060;49.186;9.226;2022-12-29T17:05:16;13.20;72.50
7254;DHT22;4060;49.186;9.226;2022-12-29T17:07:46;13.20;72.50